createdAt,value
2023-02-19T00:01:14.825Z,7.80
2023-02-19T00:03:42.221Z,7.80
2023-02-19T00:06:11.207Z,7.80
2023-02-19T00:08:39.730Z,7.80
2023-02-19T00:11:08.974Z,7.80
2023-02-19T00:13:36.864Z,7.80
2023-02-19T00:16:27.564Z,7.80
2023-02-19T00:18:55.926Z,7.90
2023-02-19T00:21:23.588Z,7.90
2023-02-19T00:23:55.084Z,7.90
2023-02-19T00:26:22.465Z,7.90
2023-02-19T00:28:51.208Z,7.90
2023-02-19T00:31:21.575Z,7.90
2023-02-19T00:33:50.612Z,7.80
2023-02-19T00:36:17.897Z,7.80
2023-02-19T00:38:45.370Z,7.80
2023-02-19T00:41:20.124Z,7.70
2023-02-19T00:43:57.318Z,7.80
2023-02-19T00:46:25.343Z,7.80
2023-02-19T00:48:52.622Z,7.80
2023-02-19T00:51:21.146Z,7.80
2023-02-19T00:53:48.477Z,7.80
2023-02-19T00:56:15.304Z,7.90
2023-02-19T00:58:42.006Z,7.90
2023-02-19T01:01:09.462Z,7.90
2023-02-19T01:03:37.342Z,7.90
2023-02-19T01:06:05.155Z,8.00
2023-02-19T01:08:32.060Z,8.00
2023-02-19T01:10:59.322Z,8.00
2023-02-19T01:13:26.940Z,8.00
2023-02-19T01:15:54.418Z,8.00
2023-02-19T01:18:21.411Z,8.10
2023-02-19T01:20:48.104Z,8.00
2023-02-19T01:23:14.749Z,7.80
2023-02-19T01:25:42.672Z,7.80
2023-02-19T01:28:10.904Z,7.80
2023-02-19T01:30:38.657Z,7.80
2023-02-19T01:33:07.219Z,7.80
2023-02-19T01:35:34.154Z,7.80
2023-02-19T01:38:00.797Z,7.80
2023-02-19T01:40:27.438Z,7.80
2023-02-19T01:42:54.104Z,7.80
2023-02-19T01:45:32.074Z,7.80
2023-02-19T01:48:17.306Z,7.80
2023-02-19T01:50:59.274Z,7.90
2023-02-19T01:53:29.408Z,7.90
2023-02-19T01:56:00.070Z,7.90
2023-02-19T01:58:31.777Z,7.90
2023-02-19T02:00:59.956Z,7.90
2023-02-19T02:03:26.729Z,8.00
2023-02-19T02:06:05.517Z,8.00
2023-02-19T02:08:52.238Z,8.00
2023-02-19T02:11:19.883Z,8.00
2023-02-19T02:13:46.581Z,8.00
2023-02-19T02:16:31.965Z,8.00
2023-02-19T02:19:38.460Z,8.00
2023-02-19T02:22:28.300Z,8.00
2023-02-19T02:25:07.904Z,8.00
2023-02-19T02:27:45.329Z,8.00
2023-02-19T02:30:21.534Z,8.00
2023-02-19T02:33:21.197Z,8.00
2023-02-19T02:35:57.988Z,8.00
2023-02-19T02:38:28.955Z,8.00
2023-02-19T02:40:56.719Z,8.00
2023-02-19T02:43:24.219Z,8.00
2023-02-19T02:45:51.014Z,8.00
2023-02-19T02:48:28.721Z,8.10
2023-02-19T02:51:10.832Z,8.10
2023-02-19T02:54:03.327Z,8.10
2023-02-19T02:56:30.847Z,8.10
2023-02-19T02:59:00.287Z,8.10
2023-02-19T03:01:50.319Z,8.30
2023-02-19T03:04:26.289Z,8.20
2023-02-19T03:06:55.418Z,8.20
2023-02-19T03:09:32.346Z,8.20
2023-02-19T03:12:21.578Z,8.20
2023-02-19T03:15:10.601Z,8.20
2023-02-19T03:18:05.501Z,8.20
2023-02-19T03:20:36.517Z,8.20
2023-02-19T03:23:03.501Z,8.30
2023-02-19T03:25:52.820Z,8.20
2023-02-19T03:28:43.870Z,8.30
2023-02-19T03:31:14.541Z,8.30
2023-02-19T03:33:43.180Z,8.20
2023-02-19T03:36:15.335Z,8.10
2023-02-19T03:38:44.446Z,8.10
2023-02-19T03:41:24.664Z,8.10
2023-02-19T03:44:06.927Z,8.20
2023-02-19T03:46:55.132Z,8.20
2023-02-19T03:49:49.184Z,8.20
2023-02-19T03:52:23.752Z,8.30
2023-02-19T03:55:10.368Z,8.30
2023-02-19T03:57:43.969Z,8.20
2023-02-19T04:00:16.877Z,8.30
2023-02-19T04:02:50.117Z,8.30
2023-02-19T04:05:29.617Z,8.30
2023-02-19T04:08:01.388Z,8.30
2023-02-19T04:10:28.649Z,8.40
2023-02-19T04:13:03.796Z,8.30
2023-02-19T04:15:34.202Z,8.30
2023-02-19T04:18:05.888Z,8.30
2023-02-19T04:20:37.078Z,8.30
2023-02-19T04:23:03.791Z,8.30
2023-02-19T04:25:32.142Z,8.20
2023-02-19T04:27:59.072Z,8.20
2023-02-19T04:30:25.780Z,8.20
2023-02-19T04:32:52.384Z,8.30
2023-02-19T04:35:19.040Z,8.30
2023-02-19T04:37:45.696Z,8.30
2023-02-19T04:40:12.358Z,8.40
2023-02-19T04:42:39.001Z,8.40
2023-02-19T04:45:06.034Z,8.50
2023-02-19T04:47:33.296Z,8.50
2023-02-19T04:50:00.020Z,8.50
2023-02-19T04:52:26.651Z,8.50
2023-02-19T04:54:53.285Z,8.50
2023-02-19T04:57:19.896Z,8.50
2023-02-19T04:59:46.999Z,8.50
2023-02-19T05:02:13.667Z,8.40
2023-02-19T05:04:41.179Z,8.40
2023-02-19T05:07:08.156Z,8.30
2023-02-19T05:09:34.796Z,8.30
2023-02-19T05:12:01.485Z,8.30
2023-02-19T05:14:28.088Z,8.30
2023-02-19T05:16:54.719Z,8.20
2023-02-19T05:19:21.324Z,8.20
2023-02-19T05:21:47.960Z,8.10
2023-02-19T05:24:14.666Z,8.10
2023-02-19T05:26:41.297Z,8.20
2023-02-19T05:29:07.899Z,8.30
2023-02-19T05:31:34.692Z,8.30
2023-02-19T05:34:01.460Z,8.30
2023-02-19T05:36:28.143Z,8.30
2023-02-19T05:38:56.275Z,8.40
2023-02-19T05:41:28.748Z,8.30
2023-02-19T05:43:56.405Z,8.30
2023-02-19T05:46:26.700Z,8.30
2023-02-19T05:48:54.045Z,8.40
2023-02-19T05:51:22.930Z,8.40
2023-02-19T05:53:50.579Z,8.40
2023-02-19T05:56:34.111Z,8.70
2023-02-19T05:59:03.945Z,8.40
2023-02-19T06:01:30.965Z,8.40
2023-02-19T06:03:58.299Z,8.40
2023-02-19T06:06:25.971Z,8.40
2023-02-19T06:08:53.511Z,8.40
2023-02-19T06:11:20.291Z,8.40
2023-02-19T06:13:47.180Z,8.40
2023-02-19T06:16:14.096Z,8.40
2023-02-19T06:18:41.221Z,8.50
2023-02-19T06:21:10.846Z,8.40
2023-02-19T06:23:38.478Z,8.40
2023-02-19T06:26:14.129Z,8.50
2023-02-19T06:28:41.839Z,8.40
2023-02-19T06:31:10.079Z,8.50
2023-02-19T06:33:40.405Z,8.40
2023-02-19T06:36:10.501Z,8.40
2023-02-19T06:38:37.096Z,8.40
2023-02-19T06:41:05.716Z,8.40
2023-02-19T06:43:33.111Z,8.40
2023-02-19T06:46:00.861Z,8.40
2023-02-19T06:48:28.972Z,8.40
2023-02-19T06:50:55.811Z,8.40
2023-02-19T06:53:22.733Z,8.40
2023-02-19T06:56:05.520Z,8.40
2023-02-19T06:58:33.196Z,8.50
2023-02-19T07:01:00.042Z,8.50
2023-02-19T07:03:26.798Z,8.50
2023-02-19T07:05:53.747Z,8.50
2023-02-19T07:08:20.671Z,8.50
2023-02-19T07:10:56.352Z,8.50
2023-02-19T07:13:24.310Z,8.50
2023-02-19T07:15:52.216Z,8.50
2023-02-19T07:18:19.050Z,8.50
2023-02-19T07:20:45.662Z,8.50
2023-02-19T07:23:12.275Z,8.50
2023-02-19T07:25:39.290Z,8.50
2023-02-19T07:28:06.575Z,8.50
2023-02-19T07:30:33.672Z,8.50
2023-02-19T07:33:00.448Z,8.50
2023-02-19T07:35:27.258Z,8.60
2023-02-19T07:37:54.203Z,8.60
2023-02-19T07:40:21.251Z,8.60
2023-02-19T07:42:47.902Z,8.60
2023-02-19T07:45:14.704Z,8.60
2023-02-19T07:47:41.335Z,8.70
2023-02-19T07:50:08.293Z,8.70
2023-02-19T07:52:34.983Z,8.70
2023-02-19T07:55:01.658Z,8.70
2023-02-19T07:57:29.682Z,8.70
2023-02-19T07:59:56.363Z,8.90
2023-02-19T08:02:41.549Z,8.70
2023-02-19T08:05:08.473Z,8.80
2023-02-19T08:07:36.589Z,8.80
2023-02-19T08:10:23.322Z,8.80
2023-02-19T08:13:19.138Z,8.80
2023-02-19T08:15:46.895Z,8.80
2023-02-19T08:18:14.696Z,8.80
2023-02-19T08:20:41.497Z,8.80
2023-02-19T08:23:08.871Z,8.90
2023-02-19T08:25:35.729Z,8.90
2023-02-19T08:28:02.640Z,8.90
2023-02-19T08:30:30.864Z,8.90
2023-02-19T08:33:02.171Z,9.00
2023-02-19T08:35:29.352Z,9.00
2023-02-19T08:37:57.721Z,9.00
2023-02-19T08:40:25.571Z,9.00
2023-02-19T08:42:52.570Z,9.00
2023-02-19T08:45:19.637Z,9.10
2023-02-19T08:47:46.566Z,9.10
2023-02-19T08:50:13.310Z,9.10
2023-02-19T08:52:39.910Z,9.20
2023-02-19T08:55:07.499Z,9.10
2023-02-19T08:57:37.593Z,9.20
2023-02-19T09:00:05.843Z,9.30
2023-02-19T09:02:32.756Z,9.30
2023-02-19T09:04:59.394Z,9.30
2023-02-19T09:07:26.317Z,9.20
2023-02-19T09:09:53.148Z,9.20
2023-02-19T09:12:19.900Z,9.20
2023-02-19T09:14:46.943Z,9.30
2023-02-19T09:17:13.527Z,9.20
2023-02-19T09:19:40.157Z,9.30
2023-02-19T09:22:06.873Z,9.40
2023-02-19T09:24:33.562Z,9.40
2023-02-19T09:27:00.169Z,9.50
2023-02-19T09:29:28.519Z,9.50
2023-02-19T09:31:59.399Z,9.70
2023-02-19T09:34:29.354Z,9.70
2023-02-19T09:36:55.980Z,9.70
2023-02-19T09:39:22.692Z,9.70
2023-02-19T09:41:58.859Z,9.70
2023-02-19T09:44:37.654Z,9.60
2023-02-19T09:47:16.280Z,9.60
2023-02-19T09:49:49.930Z,9.60
2023-02-19T09:52:38.503Z,9.70
2023-02-19T09:55:18.974Z,9.70
2023-02-19T09:57:46.931Z,9.80
2023-02-19T10:00:25.771Z,10.00
2023-02-19T10:03:05.620Z,10.00
2023-02-19T10:05:33.922Z,10.10
2023-02-19T10:08:04.413Z,10.10
2023-02-19T10:10:34.393Z,10.00
2023-02-19T10:13:21.288Z,10.00
2023-02-19T10:15:56.836Z,9.80
2023-02-19T10:18:28.204Z,9.80
2023-02-19T10:20:56.567Z,9.80
2023-02-19T10:23:24.916Z,9.80
2023-02-19T10:25:59.297Z,9.80
2023-02-19T10:28:34.977Z,9.90
2023-02-19T10:31:04.414Z,9.80
2023-02-19T10:33:31.322Z,9.70
2023-02-19T10:36:02.230Z,9.70
2023-02-19T10:38:45.373Z,9.60
2023-02-19T10:41:17.901Z,9.50
2023-02-19T10:43:52.791Z,9.40
2023-02-19T10:46:24.190Z,9.30
2023-02-19T10:49:00.334Z,9.10
2023-02-19T10:51:45.905Z,9.00
2023-02-19T10:54:31.292Z,9.10
2023-02-19T10:57:15.621Z,9.10
2023-02-19T10:59:58.589Z,9.40
2023-02-19T11:02:26.370Z,9.30
2023-02-19T11:05:23.191Z,9.30
2023-02-19T11:07:54.547Z,9.20
2023-02-19T11:10:39.047Z,9.20
2023-02-19T11:13:13.911Z,9.30
2023-02-19T11:15:41.590Z,9.50
2023-02-19T11:18:25.334Z,9.70
2023-02-19T11:20:57.649Z,10.10
2023-02-19T11:23:35.461Z,10.20
2023-02-19T11:26:06.434Z,10.10
2023-02-19T11:28:39.039Z,10.30
2023-02-19T11:31:23.933Z,10.30
2023-02-19T11:33:55.502Z,10.30
2023-02-19T11:36:30.057Z,10.30
2023-02-19T11:38:59.249Z,10.50
2023-02-19T11:42:03.546Z,10.60
2023-02-19T11:45:14.486Z,10.70
2023-02-19T11:48:14.493Z,10.80
2023-02-19T11:51:03.115Z,10.90
2023-02-19T11:53:32.986Z,11.20
2023-02-19T11:56:18.258Z,11.20
2023-02-19T11:59:12.799Z,11.00
2023-02-19T12:02:05.711Z,11.00
2023-02-19T12:04:51.034Z,10.70
2023-02-19T12:07:36.754Z,10.70
2023-02-19T12:10:09.623Z,10.50
2023-02-19T12:12:44.620Z,10.50
2023-02-19T12:15:37.566Z,10.50
2023-02-19T12:18:45.848Z,10.40
2023-02-19T12:21:31.418Z,10.40
2023-02-19T12:24:31.884Z,10.40
2023-02-19T12:26:58.493Z,10.30
2023-02-19T12:29:43.434Z,10.20
2023-02-19T12:32:19.361Z,10.20
2023-02-19T12:34:58.351Z,10.10
2023-02-19T12:37:48.434Z,10.20
2023-02-19T12:40:37.630Z,10.30
2023-02-19T12:43:21.572Z,10.40
2023-02-19T12:46:14.028Z,10.60
2023-02-19T12:48:55.613Z,10.60
2023-02-19T12:51:37.222Z,10.60
2023-02-19T12:54:24.908Z,10.50
2023-02-19T12:57:02.830Z,10.50
2023-02-19T12:59:39.433Z,10.50
2023-02-19T13:02:29.210Z,10.50
2023-02-19T13:05:23.031Z,10.60
2023-02-19T13:08:03.096Z,10.70
2023-02-19T13:10:39.248Z,10.70
2023-02-19T13:13:12.371Z,10.70
2023-02-19T13:15:43.999Z,10.70
2023-02-19T13:18:22.894Z,10.80
2023-02-19T13:20:51.746Z,10.80
2023-02-19T13:23:40.967Z,10.70
2023-02-19T13:26:22.373Z,10.70
2023-02-19T13:29:13.445Z,10.60
2023-02-19T13:32:05.283Z,10.70
2023-02-19T13:34:54.665Z,10.80
2023-02-19T13:37:22.487Z,10.80
2023-02-19T13:39:52.016Z,10.60
2023-02-19T13:42:30.989Z,10.70
2023-02-19T13:44:58.722Z,10.70
2023-02-19T13:47:44.359Z,10.80
2023-02-19T13:50:27.236Z,10.70
2023-02-19T13:52:58.678Z,10.70
2023-02-19T13:55:46.035Z,10.70
2023-02-19T13:58:50.418Z,10.80
2023-02-19T14:01:18.394Z,10.80
2023-02-19T14:03:47.391Z,10.80
2023-02-19T14:06:14.604Z,10.70
2023-02-19T14:08:56.171Z,10.70
2023-02-19T14:11:41.561Z,10.70
2023-02-19T14:14:25.448Z,10.70
2023-02-19T14:16:56.277Z,10.60
2023-02-19T14:19:42.935Z,10.80
2023-02-19T14:22:55.408Z,10.80
2023-02-19T14:25:31.033Z,10.80
2023-02-19T14:28:21.000Z,10.90
2023-02-19T14:30:52.126Z,10.90
2023-02-19T14:33:26.433Z,10.70
2023-02-19T14:36:06.000Z,10.60
2023-02-19T14:38:45.968Z,10.70
2023-02-19T14:41:15.473Z,10.80
2023-02-19T14:43:43.253Z,10.80
2023-02-19T14:46:25.300Z,10.80
2023-02-19T14:48:52.359Z,10.70
2023-02-19T14:51:44.059Z,10.50
2023-02-19T14:54:26.944Z,10.60
2023-02-19T14:56:54.548Z,10.70
2023-02-19T14:59:24.483Z,10.60
2023-02-19T15:01:59.754Z,10.50
2023-02-19T15:04:31.205Z,10.50
2023-02-19T15:07:01.086Z,10.50
2023-02-19T15:09:36.020Z,10.50
2023-02-19T15:12:03.333Z,10.40
2023-02-19T15:14:30.824Z,10.40
2023-02-19T15:17:03.997Z,10.40
2023-02-19T15:19:34.996Z,10.40
2023-02-19T15:22:02.029Z,10.40
2023-02-19T15:24:29.067Z,10.40
2023-02-19T15:26:56.140Z,10.40
2023-02-19T15:29:25.018Z,10.40
2023-02-19T15:31:57.878Z,10.40
2023-02-19T15:34:30.181Z,10.40
2023-02-19T15:37:06.349Z,10.30
2023-02-19T15:39:43.034Z,10.20
2023-02-19T15:42:15.368Z,10.20
2023-02-19T15:44:59.269Z,10.20
2023-02-19T15:47:43.167Z,10.20
2023-02-19T15:50:15.333Z,10.20
2023-02-19T15:52:45.924Z,10.20
2023-02-19T15:55:37.049Z,10.10
2023-02-19T15:58:19.388Z,10.10
2023-02-19T16:00:57.176Z,10.10
2023-02-19T16:03:26.256Z,10.00
2023-02-19T16:06:00.510Z,10.00
2023-02-19T16:08:35.791Z,9.80
2023-02-19T16:11:23.828Z,9.50
2023-02-19T16:13:51.841Z,9.30
2023-02-19T16:16:24.360Z,9.30
2023-02-19T16:18:52.967Z,9.30
2023-02-19T16:21:28.026Z,9.30
2023-02-19T16:24:18.378Z,9.40
2023-02-19T16:26:45.529Z,9.30
2023-02-19T16:29:24.006Z,9.30
2023-02-19T16:32:00.166Z,9.30
2023-02-19T16:34:50.428Z,9.40
2023-02-19T16:37:54.111Z,9.40
2023-02-19T16:40:20.718Z,9.40
2023-02-19T16:42:55.102Z,9.40
2023-02-19T16:45:21.902Z,9.30
2023-02-19T16:47:50.953Z,9.30
2023-02-19T16:50:23.574Z,9.30
2023-02-19T16:52:54.327Z,9.40
2023-02-19T16:55:21.071Z,9.40
2023-02-19T16:57:48.237Z,9.40
2023-02-19T17:00:35.183Z,9.30
2023-02-19T17:03:23.625Z,9.40
2023-02-19T17:05:50.747Z,9.40
2023-02-19T17:08:38.666Z,9.30
2023-02-19T17:11:10.478Z,9.30
2023-02-19T17:13:37.340Z,9.30
2023-02-19T17:16:04.256Z,9.30
2023-02-19T17:18:30.945Z,9.30
2023-02-19T17:21:17.118Z,9.30
2023-02-19T17:23:43.764Z,9.30
2023-02-19T17:26:15.534Z,9.20
2023-02-19T17:28:42.362Z,9.20
2023-02-19T17:31:11.009Z,9.20
2023-02-19T17:33:38.630Z,9.20
2023-02-19T17:36:06.047Z,9.20
2023-02-19T17:38:32.905Z,9.30
2023-02-19T17:40:59.613Z,9.30
2023-02-19T17:43:26.296Z,9.30
2023-02-19T17:45:52.929Z,9.20
2023-02-19T17:48:19.565Z,9.20
2023-02-19T17:50:49.116Z,9.20
2023-02-19T17:53:15.956Z,9.20
2023-02-19T17:55:42.628Z,9.20
2023-02-19T17:58:09.257Z,9.30
2023-02-19T18:00:36.651Z,9.30
2023-02-19T18:03:03.948Z,9.30
2023-02-19T18:05:31.301Z,9.30
2023-02-19T18:07:57.963Z,9.20
2023-02-19T18:10:25.252Z,9.20
2023-02-19T18:12:52.178Z,9.20
2023-02-19T18:15:28.118Z,9.20
2023-02-19T18:17:55.945Z,9.20
2023-02-19T18:20:25.178Z,9.20
2023-02-19T18:22:52.241Z,9.20
2023-02-19T18:25:20.186Z,9.20
2023-02-19T18:27:47.134Z,9.20
2023-02-19T18:30:18.230Z,9.20
2023-02-19T18:32:48.004Z,9.20
2023-02-19T18:35:15.354Z,9.20
2023-02-19T18:37:42.103Z,9.20
2023-02-19T18:40:10.138Z,9.20
2023-02-19T18:42:36.811Z,9.10
2023-02-19T18:45:04.240Z,9.10
2023-02-19T18:47:30.875Z,9.10
2023-02-19T18:49:59.430Z,9.20
2023-02-19T18:52:27.016Z,9.10
2023-02-19T18:54:57.147Z,9.10
2023-02-19T18:57:26.422Z,9.10
2023-02-19T18:59:53.509Z,9.00
2023-02-19T19:02:20.499Z,9.10
2023-02-19T19:04:52.696Z,9.10
2023-02-19T19:07:20.734Z,9.00
2023-02-19T19:09:47.824Z,9.00
2023-02-19T19:12:15.173Z,9.10
2023-02-19T19:14:42.059Z,9.10
2023-02-19T19:17:09.028Z,9.10
2023-02-19T19:19:35.709Z,9.10
2023-02-19T19:22:02.485Z,9.10
2023-02-19T19:24:29.125Z,9.10
2023-02-19T19:26:55.807Z,9.10
2023-02-19T19:29:22.936Z,9.10
2023-02-19T19:31:50.153Z,9.10
2023-02-19T19:34:17.396Z,9.10
2023-02-19T19:36:44.945Z,9.10
2023-02-19T19:39:11.756Z,9.10
2023-02-19T19:41:38.477Z,9.10
2023-02-19T19:44:06.330Z,9.10
2023-02-19T19:46:33.966Z,9.10
2023-02-19T19:49:01.122Z,9.10
2023-02-19T19:51:35.075Z,9.00
2023-02-19T19:54:03.970Z,9.00
2023-02-19T19:56:31.076Z,9.00
2023-02-19T19:58:57.683Z,9.00
2023-02-19T20:01:24.545Z,9.00
2023-02-19T20:03:51.281Z,9.00
2023-02-19T20:06:26.529Z,9.00
2023-02-19T20:08:53.400Z,9.00
2023-02-19T20:11:20.015Z,9.00
2023-02-19T20:13:46.652Z,9.10
2023-02-19T20:16:14.614Z,9.00
2023-02-19T20:18:41.593Z,9.00
2023-02-19T20:21:11.805Z,9.00
2023-02-19T20:23:39.775Z,9.00
2023-02-19T20:26:06.973Z,9.00
2023-02-19T20:28:33.862Z,9.00
2023-02-19T20:31:00.629Z,9.00
2023-02-19T20:33:27.358Z,8.90
2023-02-19T20:35:54.059Z,8.90
2023-02-19T20:38:20.670Z,8.90
2023-02-19T20:40:47.332Z,8.90
2023-02-19T20:43:14.019Z,8.90
2023-02-19T20:45:43.007Z,8.90
2023-02-19T20:48:09.620Z,8.90
2023-02-19T20:50:36.308Z,9.00
2023-02-19T20:53:02.975Z,8.80
2023-02-19T20:55:29.658Z,8.80
2023-02-19T20:57:56.322Z,8.70
2023-02-19T21:00:23.175Z,8.70
2023-02-19T21:02:50.023Z,8.60
2023-02-19T21:05:17.882Z,8.60
2023-02-19T21:07:44.506Z,8.60
2023-02-19T21:10:11.676Z,8.60
2023-02-19T21:12:38.395Z,8.60
2023-02-19T21:15:05.797Z,8.60
2023-02-19T21:17:32.454Z,8.60
2023-02-19T21:19:59.065Z,8.60
2023-02-19T21:22:25.765Z,8.60
2023-02-19T21:24:53.596Z,8.60
2023-02-19T21:27:20.872Z,8.50
2023-02-19T21:29:47.840Z,8.40
2023-02-19T21:32:14.906Z,8.30
2023-02-19T21:34:42.420Z,8.30
2023-02-19T21:37:09.147Z,8.40
2023-02-19T21:39:35.897Z,8.20
2023-02-19T21:42:03.774Z,8.10
2023-02-19T21:44:30.465Z,8.00
2023-02-19T21:46:57.111Z,8.00
2023-02-19T21:49:24.097Z,7.90
2023-02-19T21:51:50.838Z,7.90
2023-02-19T21:54:26.842Z,7.90
2023-02-19T21:56:54.171Z,7.80
2023-02-19T21:59:21.842Z,7.70
2023-02-19T22:01:50.430Z,7.70
2023-02-19T22:04:21.004Z,7.60
2023-02-19T22:06:47.734Z,7.60
2023-02-19T22:09:15.446Z,7.60
2023-02-19T22:11:42.156Z,7.60
2023-02-19T22:14:09.018Z,7.60
2023-02-19T22:16:35.809Z,7.50
2023-02-19T22:19:02.452Z,7.50
2023-02-19T22:21:33.986Z,7.50
2023-02-19T22:24:02.564Z,7.40
2023-02-19T22:26:34.576Z,7.40
2023-02-19T22:29:06.748Z,7.20
2023-02-19T22:31:34.290Z,7.20
2023-02-19T22:34:01.133Z,7.30
2023-02-19T22:36:33.538Z,7.20
2023-02-19T22:39:01.146Z,7.20
2023-02-19T22:41:28.590Z,7.20
2023-02-19T22:43:56.756Z,7.20
2023-02-19T22:46:26.548Z,7.10
2023-02-19T22:48:53.146Z,7.00
2023-02-19T22:51:22.042Z,7.00
2023-02-19T22:53:55.008Z,7.00
2023-02-19T22:56:24.631Z,7.00
2023-02-19T22:58:52.257Z,7.00
2023-02-19T23:01:19.484Z,6.90
2023-02-19T23:03:48.388Z,7.00
2023-02-19T23:06:16.649Z,6.90
2023-02-19T23:08:43.616Z,6.90
2023-02-19T23:11:12.147Z,6.80
2023-02-19T23:13:42.174Z,6.80
2023-02-19T23:16:08.811Z,6.80
2023-02-19T23:18:35.461Z,6.70
2023-02-19T23:21:02.143Z,6.60
2023-02-19T23:23:28.957Z,6.60
2023-02-19T23:25:55.660Z,6.60
2023-02-19T23:28:22.308Z,6.70
2023-02-19T23:30:49.110Z,6.70
2023-02-19T23:33:15.950Z,6.50
2023-02-19T23:35:42.665Z,6.50
2023-02-19T23:38:09.730Z,6.40
2023-02-19T23:40:36.403Z,6.30
2023-02-19T23:43:03.134Z,6.30
2023-02-19T23:45:29.912Z,6.20
2023-02-19T23:47:56.581Z,6.30
2023-02-19T23:50:23.253Z,6.20
2023-02-19T23:52:50.056Z,6.40
2023-02-19T23:55:16.887Z,6.40
2023-02-19T23:57:43.506Z,6.50
